createdAt,value
2022-12-13T00:01:22.887Z,-4.91
2022-12-13T00:03:53.598Z,-4.87
2022-12-13T00:06:21.877Z,-4.87
2022-12-13T00:08:50.119Z,-4.87
2022-12-13T00:11:18.829Z,-4.86
2022-12-13T00:13:47.954Z,-4.88
2022-12-13T00:16:19.648Z,-4.96
2022-12-13T00:18:48.811Z,-4.98
2022-12-13T00:21:19.123Z,-4.95
2022-12-13T00:23:47.515Z,-4.97
2022-12-13T00:26:17.991Z,-5.16
2022-12-13T00:28:49.148Z,-5.59
2022-12-13T00:31:53.693Z,-5.47
2022-12-13T00:34:07.731Z,-5.32
2022-12-13T00:36:36.074Z,-5.48
2022-12-13T00:39:04.546Z,-5.43
2022-12-13T00:41:34.135Z,-5.51
2022-12-13T00:44:03.119Z,-5.55
2022-12-13T00:46:33.258Z,-5.65
2022-12-13T00:49:02.139Z,-5.68
2022-12-13T00:51:31.904Z,-5.67
2022-12-13T00:54:01.152Z,-5.60
2022-12-13T00:56:31.178Z,-5.56
2022-12-13T00:58:59.952Z,-5.88
2022-12-13T01:01:30.242Z,-5.78
2022-12-13T01:04:00.331Z,-5.72
2022-12-13T01:06:30.796Z,-5.70
2022-12-13T01:08:59.179Z,-5.67
2022-12-13T01:11:27.469Z,-5.75
2022-12-13T01:13:55.763Z,-5.72
2022-12-13T01:16:24.128Z,-5.68
2022-12-13T01:18:52.579Z,-5.66
2022-12-13T01:21:22.435Z,-5.72
2022-12-13T01:23:50.760Z,-5.78
2022-12-13T01:26:21.024Z,-5.73
2022-12-13T01:28:49.219Z,-5.89
2022-12-13T01:31:19.412Z,-5.78
2022-12-13T01:33:47.582Z,-5.75
2022-12-13T01:36:17.974Z,-5.90
2022-12-13T01:38:47.664Z,-5.93
2022-12-13T01:41:18.248Z,-6.16
2022-12-13T01:43:55.500Z,-5.94
2022-12-13T01:46:24.076Z,-5.88
2022-12-13T01:48:56.774Z,-5.89
2022-12-13T01:51:29.438Z,-5.95
2022-12-13T01:54:02.433Z,-5.93
2022-12-13T01:56:34.200Z,-5.95
2022-12-13T01:59:03.350Z,-5.96
2022-12-13T02:01:32.373Z,-5.91
2022-12-13T02:04:00.675Z,-5.90
2022-12-13T02:06:34.002Z,-5.91
2022-12-13T02:09:05.419Z,-5.94
2022-12-13T02:11:34.822Z,-5.98
2022-12-13T02:14:03.535Z,-6.03
2022-12-13T02:16:42.884Z,-5.98
2022-12-13T02:19:37.512Z,-6.03
2022-12-13T02:22:14.236Z,-5.95
2022-12-13T02:24:59.436Z,-6.02
2022-12-13T02:27:45.127Z,-6.01
2022-12-13T02:30:22.459Z,-6.09
2022-12-13T02:33:01.477Z,-6.12
2022-12-13T02:35:34.731Z,-6.12
2022-12-13T02:38:07.916Z,-6.12
2022-12-13T02:40:39.778Z,-6.16
2022-12-13T02:43:10.729Z,-6.28
2022-12-13T02:45:45.483Z,-6.27
2022-12-13T02:48:15.334Z,-6.60
2022-12-13T02:50:44.402Z,-6.43
2022-12-13T02:53:14.063Z,-6.33
2022-12-13T02:55:42.348Z,-6.22
2022-12-13T02:58:13.619Z,-6.17
2022-12-13T03:00:53.124Z,-6.21
2022-12-13T03:03:27.655Z,-6.19
2022-12-13T03:06:18.854Z,-6.15
2022-12-13T03:08:56.157Z,-6.16
2022-12-13T03:11:26.776Z,-6.31
2022-12-13T03:13:55.831Z,-6.29
2022-12-13T03:16:29.737Z,-6.33
2022-12-13T03:19:01.588Z,-6.00
2022-12-13T03:21:30.202Z,-6.07
2022-12-13T03:23:58.500Z,-6.04
2022-12-13T03:26:27.840Z,-6.21
2022-12-13T03:28:56.080Z,-6.15
2022-12-13T03:31:24.375Z,-6.25
2022-12-13T03:33:54.034Z,-6.20
2022-12-13T03:36:22.543Z,-5.95
2022-12-13T03:38:52.294Z,-5.85
2022-12-13T03:41:23.112Z,-5.75
2022-12-13T03:43:51.457Z,-5.64
2022-12-13T03:46:19.748Z,-5.58
2022-12-13T03:48:47.988Z,-5.48
2022-12-13T03:51:17.613Z,-5.74
2022-12-13T03:53:45.968Z,-5.62
2022-12-13T03:56:14.333Z,-5.67
2022-12-13T03:58:43.186Z,-5.74
2022-12-13T04:01:13.152Z,-5.60
2022-12-13T04:03:43.288Z,-5.61
2022-12-13T04:06:11.853Z,-5.72
2022-12-13T04:08:41.553Z,-5.70
2022-12-13T04:11:23.886Z,-5.69
2022-12-13T04:13:52.346Z,-5.57
2022-12-13T04:16:21.184Z,-5.92
2022-12-13T04:18:49.646Z,-5.97
2022-12-13T04:21:17.867Z,-5.82
2022-12-13T04:23:47.459Z,-5.86
2022-12-13T04:26:15.687Z,-5.69
2022-12-13T04:28:45.300Z,-5.67
2022-12-13T04:31:16.387Z,-5.59
2022-12-13T04:33:44.610Z,-5.63
2022-12-13T04:36:31.872Z,-5.74
2022-12-13T04:39:03.110Z,-5.66
2022-12-13T04:41:34.433Z,-5.66
2022-12-13T04:44:03.849Z,-5.70
2022-12-13T04:46:32.121Z,-5.55
2022-12-13T04:49:00.422Z,-5.59
2022-12-13T04:51:28.948Z,-5.74
2022-12-13T04:53:57.152Z,-5.74
2022-12-13T04:56:46.869Z,-5.72
2022-12-13T04:59:15.273Z,-5.63
2022-12-13T05:01:43.710Z,-5.64
2022-12-13T05:04:11.971Z,-5.80
2022-12-13T05:06:40.440Z,-5.55
2022-12-13T05:09:11.383Z,-5.66
2022-12-13T05:11:45.530Z,-5.57
2022-12-13T05:14:23.506Z,-5.58
2022-12-13T05:16:53.399Z,-5.69
2022-12-13T05:19:21.700Z,-5.58
2022-12-13T05:22:01.990Z,-5.84
2022-12-13T05:24:31.558Z,-5.60
2022-12-13T05:27:00.308Z,-5.76
2022-12-13T05:29:30.055Z,-5.53
2022-12-13T05:31:58.553Z,-6.00
2022-12-13T05:34:27.072Z,-5.84
2022-12-13T05:36:55.439Z,-5.82
2022-12-13T05:39:28.946Z,-6.16
2022-12-13T05:42:01.901Z,-5.95
2022-12-13T05:44:33.494Z,-6.07
2022-12-13T05:47:02.667Z,-5.54
2022-12-13T05:49:32.201Z,-5.54
2022-12-13T05:52:00.755Z,-5.45
2022-12-13T05:54:29.062Z,-5.14
2022-12-13T05:56:57.666Z,-5.48
2022-12-13T05:59:25.932Z,-5.41
2022-12-13T06:01:55.679Z,-5.60
2022-12-13T06:04:24.001Z,-5.56
2022-12-13T06:06:52.767Z,-5.19
2022-12-13T06:09:21.552Z,-5.18
2022-12-13T06:11:50.001Z,-5.26
2022-12-13T06:14:22.306Z,-5.43
2022-12-13T06:16:52.669Z,-5.44
2022-12-13T06:19:23.306Z,-5.55
2022-12-13T06:21:52.288Z,-4.88
2022-12-13T06:24:22.412Z,-5.07
2022-12-13T06:26:51.461Z,-4.90
2022-12-13T06:29:23.781Z,-4.98
2022-12-13T06:32:01.188Z,-4.80
2022-12-13T06:34:34.199Z,-4.33
2022-12-13T06:37:03.094Z,-4.27
2022-12-13T06:39:32.674Z,-4.18
2022-12-13T06:42:03.304Z,-4.15
2022-12-13T06:44:31.931Z,-3.99
2022-12-13T06:47:10.731Z,-3.80
2022-12-13T06:49:43.865Z,-4.15
2022-12-13T06:52:14.174Z,-4.16
2022-12-13T06:54:42.919Z,-4.01
2022-12-13T06:57:11.772Z,-3.51
2022-12-13T06:59:41.137Z,-3.87
2022-12-13T07:02:25.162Z,-3.59
2022-12-13T07:04:56.527Z,-3.51
2022-12-13T07:07:25.709Z,-3.60
2022-12-13T07:09:54.647Z,-3.83
2022-12-13T07:12:23.287Z,-3.54
2022-12-13T07:14:51.769Z,-3.99
2022-12-13T07:17:34.196Z,-4.19
2022-12-13T07:20:09.300Z,-3.82
2022-12-13T07:22:44.816Z,-3.91
2022-12-13T07:25:28.092Z,-3.97
2022-12-13T07:28:01.717Z,-4.31
2022-12-13T07:30:32.269Z,-4.11
2022-12-13T07:33:01.840Z,-3.82
2022-12-13T07:35:37.515Z,-3.85
2022-12-13T07:38:06.099Z,-3.73
2022-12-13T07:40:35.226Z,-3.55
2022-12-13T07:43:03.566Z,-3.53
2022-12-13T07:45:32.146Z,-3.48
2022-12-13T07:48:04.230Z,-3.77
2022-12-13T07:50:37.135Z,-3.70
2022-12-13T07:53:06.917Z,-3.48
2022-12-13T07:55:35.557Z,-3.40
2022-12-13T07:58:07.874Z,-3.49
2022-12-13T08:00:36.752Z,-3.53
2022-12-13T08:03:05.529Z,-3.58
2022-12-13T08:05:38.545Z,-3.55
2022-12-13T08:08:09.149Z,-3.63
2022-12-13T08:10:37.916Z,-3.68
2022-12-13T08:13:06.208Z,-3.52
2022-12-13T08:15:34.834Z,-3.41
2022-12-13T08:18:04.048Z,-3.26
2022-12-13T08:20:32.362Z,-4.03
2022-12-13T08:23:03.102Z,-3.65
2022-12-13T08:25:31.864Z,-3.32
2022-12-13T08:28:01.619Z,-3.26
2022-12-13T08:30:32.274Z,-3.74
2022-12-13T08:33:04.936Z,-3.59
2022-12-13T08:35:34.853Z,-3.75
2022-12-13T08:38:04.888Z,-3.51
2022-12-13T08:40:34.039Z,-3.67
2022-12-13T08:43:02.402Z,-3.45
2022-12-13T08:45:31.763Z,-2.97
2022-12-13T08:48:00.620Z,-3.16
2022-12-13T08:50:29.640Z,-2.83
2022-12-13T08:52:58.860Z,-2.45
2022-12-13T08:55:31.872Z,-2.59
2022-12-13T08:58:04.914Z,-2.68
2022-12-13T09:00:35.787Z,-2.66
2022-12-13T09:03:05.682Z,-2.53
2022-12-13T09:05:38.193Z,-2.80
2022-12-13T09:08:23.378Z,-2.55
2022-12-13T09:11:10.505Z,-2.08
2022-12-13T09:13:43.320Z,-2.17
2022-12-13T09:16:23.574Z,-2.29
2022-12-13T09:18:55.055Z,-2.33
2022-12-13T09:21:31.434Z,-2.71
2022-12-13T09:24:01.957Z,-2.36
2022-12-13T09:26:37.775Z,-2.34
2022-12-13T09:29:11.191Z,-2.38
2022-12-13T09:31:40.903Z,-2.73
2022-12-13T09:34:10.101Z,-2.72
2022-12-13T09:36:38.432Z,-2.86
2022-12-13T09:39:06.710Z,-2.80
2022-12-13T09:41:40.619Z,-3.21
2022-12-13T09:44:32.188Z,-2.72
2022-12-13T09:47:04.291Z,-2.50
2022-12-13T09:49:51.721Z,-2.36
2022-12-13T09:52:24.151Z,-2.56
2022-12-13T09:54:54.854Z,-2.70
2022-12-13T09:57:32.963Z,-2.32
2022-12-13T10:00:04.553Z,-1.84
2022-12-13T10:05:35.691Z,-1.78
2022-12-13T10:08:09.338Z,-1.92
2022-12-13T10:10:37.965Z,-1.24
2022-12-13T10:13:14.160Z,-1.77
2022-12-13T10:15:43.677Z,-2.31
2022-12-13T10:18:14.227Z,-2.18
2022-12-13T10:20:42.506Z,-2.35
2022-12-13T10:23:35.784Z,-2.11
2022-12-13T10:26:03.167Z,-2.27
2022-12-13T10:28:34.643Z,-2.08
2022-12-13T10:31:03.245Z,-1.41
2022-12-13T10:33:33.276Z,-1.41
2022-12-13T10:36:10.767Z,-1.02
2022-12-13T10:38:40.869Z,-1.24
2022-12-13T10:41:34.950Z,-0.52
2022-12-13T10:44:21.523Z,-1.21
2022-12-13T10:46:59.707Z,-1.20
2022-12-13T10:49:35.937Z,-1.15
2022-12-13T10:52:04.579Z,-1.59
2022-12-13T10:54:38.746Z,-1.57
2022-12-13T10:57:16.998Z,-0.90
2022-12-13T10:59:48.636Z,-0.91
2022-12-13T11:02:32.043Z,-0.49
2022-12-13T11:05:05.403Z,-0.16
2022-12-13T11:07:36.491Z,-1.02
2022-12-13T11:10:23.653Z,-0.14
2022-12-13T11:12:59.557Z,-0.76
2022-12-13T11:15:31.087Z,-0.72
2022-12-13T11:18:00.738Z,-0.89
2022-12-13T11:20:32.666Z,-0.71
2022-12-13T11:23:02.790Z,-0.18
2022-12-13T11:25:35.120Z,-0.32
2022-12-13T11:28:30.604Z,-0.92
2022-12-13T11:31:10.194Z,-0.56
2022-12-13T11:33:48.057Z,-0.72
2022-12-13T11:36:24.291Z,-0.90
2022-12-13T11:39:02.285Z,-0.82
2022-12-13T11:41:33.790Z,-0.94
2022-12-13T11:44:10.505Z,-0.72
2022-12-13T11:46:43.595Z,-0.66
2022-12-13T11:49:18.109Z,-0.37
2022-12-13T11:51:50.342Z,-0.43
2022-12-13T11:54:24.434Z,0.12
2022-12-13T11:57:00.339Z,-0.73
2022-12-13T11:59:39.761Z,-0.70
2022-12-13T12:02:17.503Z,-0.37
2022-12-13T12:04:50.087Z,-0.22
2022-12-13T12:07:32.894Z,-0.38
2022-12-13T12:10:10.877Z,-0.26
2022-12-13T12:12:39.539Z,-0.26
2022-12-13T12:15:15.205Z,-0.06
2022-12-13T12:17:45.987Z,-0.21
2022-12-13T12:20:24.207Z,0.12
2022-12-13T12:23:00.512Z,0.49
2022-12-13T12:25:31.914Z,0.06
2022-12-13T12:28:06.550Z,0.27
2022-12-13T12:30:42.176Z,0.17
2022-12-13T12:33:18.699Z,-0.03
2022-12-13T12:36:00.523Z,0.22
2022-12-13T12:38:57.092Z,0.29
2022-12-13T12:41:34.005Z,0.98
2022-12-13T12:44:08.669Z,1.18
2022-12-13T12:47:08.563Z,0.16
2022-12-13T12:50:12.951Z,0.35
2022-12-13T12:52:50.466Z,1.25
2022-12-13T12:55:23.919Z,0.85
2022-12-13T12:58:01.580Z,0.66
2022-12-13T13:00:32.188Z,0.71
2022-12-13T13:03:15.757Z,0.60
2022-12-13T13:05:55.818Z,0.38
2022-12-13T13:08:31.639Z,0.48
2022-12-13T13:11:01.946Z,0.58
2022-12-13T13:13:46.033Z,0.60
2022-12-13T13:16:34.811Z,0.87
2022-12-13T13:19:03.477Z,0.60
2022-12-13T13:21:42.460Z,0.95
2022-12-13T13:24:25.100Z,0.54
2022-12-13T13:26:56.281Z,0.60
2022-12-13T13:29:43.296Z,0.28
2022-12-13T13:32:30.476Z,0.10
2022-12-13T13:35:43.945Z,-0.06
2022-12-13T13:38:29.545Z,0.43
2022-12-13T13:40:57.793Z,0.03
2022-12-13T13:43:32.906Z,0.42
2022-12-13T13:46:10.798Z,0.64
2022-12-13T13:48:51.083Z,0.21
2022-12-13T13:51:33.321Z,0.38
2022-12-13T13:54:32.871Z,0.23
2022-12-13T13:57:45.554Z,0.26
2022-12-13T14:00:20.302Z,0.10
2022-12-13T14:03:22.238Z,0.13
2022-12-13T14:06:36.650Z,0.19
2022-12-13T14:09:27.983Z,-0.31
2022-12-13T14:12:23.787Z,0.02
2022-12-13T14:15:16.796Z,0.44
2022-12-13T14:18:09.367Z,0.39
2022-12-13T14:20:50.158Z,0.69
2022-12-13T14:23:28.551Z,0.60
2022-12-13T14:26:15.137Z,0.39
2022-12-13T14:28:49.741Z,0.62
2022-12-13T14:31:22.676Z,-0.09
2022-12-13T14:33:52.886Z,0.66
2022-12-13T14:36:27.966Z,0.78
2022-12-13T14:39:03.188Z,0.90
2022-12-13T14:41:32.950Z,0.64
2022-12-13T14:44:22.846Z,0.43
2022-12-13T14:46:52.860Z,0.13
2022-12-13T14:49:21.474Z,0.23
2022-12-13T14:51:53.709Z,0.29
2022-12-13T14:54:26.152Z,0.12
2022-12-13T14:56:57.782Z,0.01
2022-12-13T14:59:26.215Z,0.08
2022-12-13T15:01:57.260Z,-0.11
2022-12-13T15:04:29.427Z,-0.05
2022-12-13T15:07:00.968Z,0.05
2022-12-13T15:09:29.781Z,-0.15
2022-12-13T15:12:24.072Z,-0.24
2022-12-13T15:14:50.433Z,-0.13
2022-12-13T15:17:31.189Z,-0.40
2022-12-13T15:20:00.518Z,-0.42
2022-12-13T15:22:30.077Z,-0.38
2022-12-13T15:24:58.559Z,-0.56
2022-12-13T15:27:28.291Z,-0.58
2022-12-13T15:29:56.639Z,-0.66
2022-12-13T15:32:24.886Z,-0.55
2022-12-13T15:34:53.258Z,-0.56
2022-12-13T15:37:29.725Z,-0.41
2022-12-13T15:40:00.831Z,-0.75
2022-12-13T15:42:34.196Z,-0.47
2022-12-13T15:45:05.083Z,-0.64
2022-12-13T15:47:33.761Z,-0.47
2022-12-13T15:50:03.691Z,-0.42
2022-12-13T15:52:37.563Z,-0.37
2022-12-13T15:55:28.265Z,-0.11
2022-12-13T15:57:59.345Z,-0.13
2022-12-13T16:00:31.964Z,0.08
2022-12-13T16:03:09.487Z,0.20
2022-12-13T16:05:42.394Z,-0.24
2022-12-13T16:08:24.106Z,-0.39
2022-12-13T16:10:53.963Z,-0.37
2022-12-13T16:13:27.243Z,-0.28
2022-12-13T16:16:08.540Z,-0.27
2022-12-13T16:18:44.676Z,-0.15
2022-12-13T16:21:14.233Z,0.06
2022-12-13T16:23:48.601Z,0.14
2022-12-13T16:26:24.006Z,0.05
2022-12-13T16:28:53.846Z,0.04
2022-12-13T16:31:25.455Z,-0.01
2022-12-13T16:33:53.822Z,-0.16
2022-12-13T16:36:22.131Z,-0.07
2022-12-13T16:38:51.368Z,-0.05
2022-12-13T16:41:21.831Z,0.08
2022-12-13T16:43:52.848Z,-0.02
2022-12-13T16:47:15.156Z,0.01
2022-12-13T16:49:20.099Z,-0.19
2022-12-13T16:51:49.248Z,-0.15
2022-12-13T16:54:18.613Z,-0.20
2022-12-13T16:56:47.059Z,-0.18
2022-12-13T16:59:16.495Z,-0.10
2022-12-13T17:01:46.963Z,-0.12
2022-12-13T17:04:19.898Z,-0.15
2022-12-13T17:06:49.989Z,-0.22
2022-12-13T17:09:18.518Z,-0.26
2022-12-13T17:11:47.094Z,-0.21
2022-12-13T17:14:15.411Z,-0.31
2022-12-13T17:16:43.895Z,-0.33
2022-12-13T17:19:15.468Z,-0.35
2022-12-13T17:21:43.980Z,-0.33
2022-12-13T17:24:12.583Z,-0.46
2022-12-13T17:26:41.156Z,-0.70
2022-12-13T17:29:22.421Z,-0.55
2022-12-13T17:31:50.659Z,-0.63
2022-12-13T17:34:20.435Z,-0.74
2022-12-13T17:36:48.765Z,-0.59
2022-12-13T17:39:17.019Z,-0.87
2022-12-13T17:41:55.643Z,-0.58
2022-12-13T17:44:25.625Z,-0.62
2022-12-13T17:46:54.586Z,-0.59
2022-12-13T17:49:25.842Z,-0.43
2022-12-13T17:51:54.841Z,-0.50
2022-12-13T17:54:24.594Z,-0.49
2022-12-13T17:56:53.494Z,-0.41
2022-12-13T17:59:22.292Z,-0.35
2022-12-13T18:01:50.999Z,-0.55
2022-12-13T18:04:19.881Z,-0.49
2022-12-13T18:06:51.601Z,-0.40
2022-12-13T18:09:19.885Z,-0.54
2022-12-13T18:11:48.509Z,-0.67
2022-12-13T18:14:17.405Z,-0.62
2022-12-13T18:16:45.751Z,-0.68
2022-12-13T18:19:14.929Z,-0.33
2022-12-13T18:21:44.207Z,-0.52
2022-12-13T18:24:13.820Z,-0.54
2022-12-13T18:26:42.244Z,0.04
2022-12-13T18:29:10.512Z,-0.12
2022-12-13T18:31:39.743Z,-0.26
2022-12-13T18:34:08.723Z,-0.05
2022-12-13T18:36:37.169Z,-0.13
2022-12-13T18:39:05.569Z,-0.38
2022-12-13T18:41:35.406Z,-0.35
2022-12-13T18:44:06.022Z,-0.37
2022-12-13T18:46:36.858Z,-0.49
2022-12-13T18:49:06.005Z,-0.35
2022-12-13T18:51:34.434Z,-0.22
2022-12-13T18:54:02.742Z,-0.11
2022-12-13T18:56:31.002Z,-0.29
2022-12-13T18:59:00.684Z,-0.49
2022-12-13T19:01:30.398Z,-0.39
2022-12-13T19:03:58.961Z,-0.02
2022-12-13T19:06:28.118Z,-0.36
2022-12-13T19:08:57.896Z,-0.12
2022-12-13T19:11:26.891Z,0.06
2022-12-13T19:13:55.974Z,-0.25
2022-12-13T19:16:26.172Z,0.05
2022-12-13T19:18:54.805Z,-0.08
2022-12-13T19:21:23.426Z,-0.03
2022-12-13T19:23:57.505Z,-0.03
2022-12-13T19:26:27.265Z,-0.24
2022-12-13T19:28:56.804Z,-0.38
2022-12-13T19:31:30.909Z,-0.28
2022-12-13T19:34:01.169Z,-0.36
2022-12-13T19:36:29.558Z,-0.52
2022-12-13T19:38:57.896Z,-0.23
2022-12-13T19:41:26.246Z,-0.43
2022-12-13T19:43:54.553Z,-0.43
2022-12-13T19:46:23.091Z,-0.25
2022-12-13T19:48:52.816Z,-0.03
2022-12-13T19:51:21.559Z,-0.10
2022-12-13T19:53:50.090Z,-0.37
2022-12-13T19:56:20.452Z,-0.55
2022-12-13T19:58:49.788Z,-0.67
2022-12-13T20:01:18.905Z,-0.59
2022-12-13T20:03:47.859Z,-0.79
2022-12-13T20:06:20.467Z,-0.62
2022-12-13T20:08:49.042Z,-0.65
2022-12-13T20:11:20.225Z,-0.41
2022-12-13T20:13:49.376Z,-0.35
2022-12-13T20:16:18.350Z,-0.44
2022-12-13T20:18:47.137Z,-0.29
2022-12-13T20:21:17.505Z,-0.85
2022-12-13T20:23:48.567Z,-0.46
2022-12-13T20:26:20.315Z,-0.24
2022-12-13T20:28:49.027Z,-0.66
2022-12-13T20:31:19.230Z,-0.42
2022-12-13T20:33:47.750Z,-0.49
2022-12-13T20:36:26.962Z,-0.35
2022-12-13T20:38:56.918Z,-0.39
2022-12-13T20:41:26.176Z,-0.32
2022-12-13T20:43:55.161Z,-0.63
2022-12-13T20:46:24.509Z,-0.65
2022-12-13T20:48:53.271Z,-1.08
2022-12-13T20:51:24.419Z,-0.76
2022-12-13T20:53:54.249Z,-0.92
2022-12-13T20:56:24.648Z,-1.10
2022-12-13T20:58:53.059Z,-1.05
2022-12-13T21:01:23.865Z,-0.90
2022-12-13T21:03:54.556Z,-1.21
2022-12-13T21:06:24.123Z,-1.23
2022-12-13T21:08:52.517Z,-1.06
2022-12-13T21:11:28.643Z,-1.10
2022-12-13T21:14:03.775Z,-0.96
2022-12-13T21:16:36.927Z,-1.28
2022-12-13T21:19:05.577Z,-1.26
2022-12-13T21:21:35.380Z,-1.11
2022-12-13T21:24:04.163Z,-1.17
2022-12-13T21:26:35.773Z,-1.18
2022-12-13T21:29:06.549Z,-1.31
2022-12-13T21:31:35.957Z,-1.30
2022-12-13T21:34:05.280Z,-1.31
2022-12-13T21:36:36.109Z,-1.39
2022-12-13T21:39:09.372Z,-1.47
2022-12-13T21:41:37.753Z,-1.74
2022-12-13T21:44:06.402Z,-1.68
2022-12-13T21:47:10.250Z,-1.29
2022-12-13T21:49:23.663Z,-1.35
2022-12-13T21:51:54.998Z,-1.07
2022-12-13T21:54:23.230Z,-0.93
2022-12-13T21:57:09.213Z,-0.84
2022-12-13T21:59:37.477Z,-1.16
2022-12-13T22:02:14.539Z,-1.01
2022-12-13T22:04:44.447Z,-0.92
2022-12-13T22:07:15.630Z,-0.97
2022-12-13T22:09:44.236Z,-1.10
2022-12-13T22:12:20.236Z,-0.77
2022-12-13T22:14:49.211Z,-0.63
2022-12-13T22:17:17.784Z,-0.50
2022-12-13T22:19:48.608Z,-0.67
2022-12-13T22:22:19.375Z,-0.63
2022-12-13T22:24:53.221Z,-0.65
2022-12-13T22:27:23.897Z,-0.65
2022-12-13T22:29:53.230Z,-0.81
2022-12-13T22:32:21.643Z,-0.89
2022-12-13T22:34:49.992Z,-0.62
2022-12-13T22:37:19.682Z,-1.02
2022-12-13T22:39:47.977Z,-0.51
2022-12-13T22:42:16.569Z,-0.58
2022-12-13T22:44:44.832Z,-0.87
2022-12-13T22:47:13.034Z,-1.04
2022-12-13T22:49:41.278Z,-0.73
2022-12-13T22:52:09.789Z,-0.43
2022-12-13T22:54:39.355Z,-0.78
2022-12-13T22:57:07.663Z,-0.59
2022-12-13T22:59:35.957Z,-0.32
2022-12-13T23:02:04.489Z,-0.75
2022-12-13T23:04:32.917Z,-0.34
2022-12-13T23:07:01.346Z,-0.82
2022-12-13T23:09:29.647Z,-0.89
2022-12-13T23:12:28.300Z,-0.62
2022-12-13T23:14:56.525Z,-0.75
2022-12-13T23:17:24.722Z,-0.33
2022-12-13T23:19:53.479Z,-0.64
2022-12-13T23:22:22.841Z,-0.82
2022-12-13T23:24:51.382Z,-0.85
2022-12-13T23:27:22.384Z,-0.66
2022-12-13T23:29:50.684Z,-0.75
2022-12-13T23:32:19.077Z,-0.51
2022-12-13T23:34:47.323Z,-0.54
2022-12-13T23:37:15.538Z,-0.60
2022-12-13T23:39:43.950Z,-0.90
2022-12-13T23:42:12.199Z,-0.61
2022-12-13T23:44:42.825Z,-0.57
2022-12-13T23:47:11.198Z,-0.76
2022-12-13T23:49:39.474Z,-0.95
2022-12-13T23:52:07.752Z,-1.01
2022-12-13T23:54:35.948Z,-1.03
2022-12-13T23:57:04.345Z,-1.04
2022-12-13T23:59:32.644Z,-0.75
